createdAt,value
2017-12-25T00:01:03.891Z,4.97
2017-12-25T00:03:32.086Z,5.87
2017-12-25T00:05:59.566Z,5.20
2017-12-25T00:08:27.002Z,4.37
2017-12-25T00:10:54.442Z,6.80
2017-12-25T00:13:21.904Z,5.93
2017-12-25T00:15:50.106Z,5.20
2017-12-25T00:18:17.565Z,5.00
2017-12-25T00:20:44.987Z,5.27
2017-12-25T00:23:13.194Z,3.90
2017-12-25T00:25:40.634Z,3.70
2017-12-25T00:28:08.058Z,3.67
2017-12-25T00:30:36.271Z,3.00
2017-12-25T00:33:03.698Z,3.13
2017-12-25T00:35:31.903Z,4.10
2017-12-25T00:37:59.335Z,3.60
2017-12-25T00:40:26.774Z,2.67
2017-12-25T00:42:54.974Z,3.43
2017-12-25T00:45:22.410Z,2.13
2017-12-25T00:47:50.611Z,3.33
2017-12-25T00:50:19.616Z,2.43
2017-12-25T00:52:47.050Z,3.30
2017-12-25T00:55:14.487Z,2.93
2017-12-25T00:57:42.687Z,5.13
2017-12-25T01:00:10.123Z,5.27
2017-12-25T01:02:38.326Z,4.00
2017-12-25T01:05:05.771Z,3.50
2017-12-25T01:07:33.212Z,4.13
2017-12-25T01:10:01.422Z,5.80
2017-12-25T01:12:28.857Z,4.17
2017-12-25T01:14:56.294Z,6.30
2017-12-25T01:17:24.490Z,2.80
2017-12-25T01:19:51.958Z,4.57
2017-12-25T01:22:19.374Z,4.00
2017-12-25T01:24:47.585Z,5.70
2017-12-25T01:27:15.006Z,5.03
2017-12-25T01:29:43.219Z,13.13
2017-12-25T01:32:10.657Z,3.00
2017-12-25T01:34:38.090Z,3.70
2017-12-25T01:37:06.294Z,2.27
2017-12-25T01:39:33.760Z,4.63
2017-12-25T01:42:01.176Z,2.00
2017-12-25T01:44:28.611Z,1.63
2017-12-25T01:47:06.041Z,2.03
2017-12-25T01:49:33.478Z,1.87
2017-12-25T01:52:01.675Z,1.50
2017-12-25T01:54:29.118Z,1.23
2017-12-25T01:57:09.136Z,1.60
2017-12-25T02:02:52.786Z,1.23
2017-12-25T02:05:29.810Z,1.43
2017-12-25T02:08:08.794Z,2.20
2017-12-25T02:10:36.241Z,1.77
2017-12-25T02:13:03.665Z,2.40
2017-12-25T02:15:31.106Z,1.90
2017-12-25T02:17:59.300Z,2.70
2017-12-25T02:20:31.186Z,2.00
2017-12-25T02:22:58.617Z,2.20
2017-12-25T02:25:26.051Z,1.63
2017-12-25T02:27:54.254Z,3.20
2017-12-25T02:30:21.683Z,2.47
2017-12-25T02:32:49.898Z,3.83
2017-12-25T02:35:17.323Z,1.70
2017-12-25T02:37:44.746Z,1.70
2017-12-25T02:40:12.187Z,2.13
2017-12-25T02:42:39.617Z,1.60
2017-12-25T02:45:07.055Z,2.60
2017-12-25T02:47:34.483Z,2.23
2017-12-25T02:50:02.690Z,2.93
2017-12-25T02:52:30.127Z,2.37
2017-12-25T02:54:58.322Z,3.70
2017-12-25T02:57:25.759Z,3.27
2017-12-25T02:59:53.199Z,3.27
2017-12-25T03:02:21.425Z,3.50
2017-12-25T03:04:48.856Z,4.90
2017-12-25T03:07:16.294Z,5.20
2017-12-25T03:09:44.490Z,3.70
2017-12-25T03:12:11.941Z,6.27
2017-12-25T03:14:39.366Z,5.63
2017-12-25T03:17:06.808Z,6.67
2017-12-25T03:19:34.239Z,6.03
2017-12-25T03:22:01.681Z,5.70
2017-12-25T03:24:29.115Z,6.40
2017-12-25T03:26:56.560Z,4.37
2017-12-25T03:29:24.758Z,6.50
2017-12-25T03:31:52.195Z,4.63
2017-12-25T03:34:20.406Z,3.27
2017-12-25T03:36:47.827Z,6.67
2017-12-25T03:39:16.026Z,6.90
2017-12-25T03:41:44.339Z,5.00
2017-12-25T03:44:11.763Z,5.30
2017-12-25T03:46:39.213Z,7.03
2017-12-25T03:49:06.638Z,4.03
2017-12-25T03:51:34.849Z,6.83
2017-12-25T03:54:02.278Z,4.53
2017-12-25T03:56:29.721Z,5.73
2017-12-25T03:58:57.923Z,5.50
2017-12-25T04:01:25.358Z,4.60
2017-12-25T04:03:53.564Z,6.20
2017-12-25T04:06:21.009Z,6.83
2017-12-25T04:08:48.443Z,5.10
2017-12-25T04:11:16.860Z,4.40
2017-12-25T04:13:44.295Z,7.17
2017-12-25T04:16:11.739Z,7.97
2017-12-25T04:18:39.935Z,4.23
2017-12-25T04:21:07.369Z,4.90
2017-12-25T04:23:35.567Z,4.83
2017-12-25T04:26:03.016Z,6.50
2017-12-25T04:28:30.447Z,4.00
2017-12-25T04:30:58.650Z,6.63
2017-12-25T04:33:26.086Z,5.23
2017-12-25T04:35:54.299Z,6.90
2017-12-25T04:38:21.743Z,5.43
2017-12-25T04:40:49.183Z,7.20
2017-12-25T04:43:16.615Z,6.23
2017-12-25T04:45:44.823Z,2.90
2017-12-25T04:48:12.250Z,6.60
2017-12-25T04:50:40.450Z,5.70
2017-12-25T04:53:07.878Z,3.60
2017-12-25T04:55:36.091Z,6.83
2017-12-25T04:58:03.528Z,3.17
2017-12-25T05:00:30.971Z,7.30
2017-12-25T05:02:59.162Z,5.43
2017-12-25T05:05:26.608Z,5.20
2017-12-25T05:07:54.803Z,5.60
2017-12-25T05:10:22.250Z,6.60
2017-12-25T05:12:49.686Z,6.20
2017-12-25T05:15:17.900Z,5.90
2017-12-25T05:17:45.350Z,6.27
2017-12-25T05:20:12.785Z,5.67
2017-12-25T05:22:40.990Z,5.37
2017-12-25T05:25:08.427Z,5.40
2017-12-25T05:27:35.873Z,4.23
2017-12-25T05:30:04.066Z,6.87
2017-12-25T05:32:31.503Z,4.57
2017-12-25T05:34:58.943Z,5.30
2017-12-25T05:37:27.151Z,5.37
2017-12-25T05:39:54.595Z,7.50
2017-12-25T05:42:22.047Z,7.30
2017-12-25T05:44:50.247Z,6.80
2017-12-25T05:47:17.691Z,4.43
2017-12-25T05:49:45.118Z,4.37
2017-12-25T05:52:13.331Z,7.27
2017-12-25T05:54:40.763Z,6.60
2017-12-25T05:57:08.966Z,7.57
2017-12-25T05:59:36.403Z,6.43
2017-12-25T06:02:03.847Z,7.17
2017-12-25T06:04:32.058Z,7.07
2017-12-25T06:06:59.498Z,5.37
2017-12-25T06:09:26.933Z,2.93
2017-12-25T06:11:55.127Z,5.90
2017-12-25T06:14:22.561Z,3.33
2017-12-25T06:16:50.768Z,5.13
2017-12-25T06:19:18.200Z,4.43
2017-12-25T06:21:45.644Z,3.93
2017-12-25T06:24:13.848Z,6.30
2017-12-25T06:26:41.282Z,6.53
2017-12-25T06:29:08.728Z,5.27
2017-12-25T06:31:36.929Z,6.00
2017-12-25T06:34:04.373Z,7.60
2017-12-25T06:36:31.811Z,6.23
2017-12-25T06:39:00.008Z,5.90
2017-12-25T06:41:27.447Z,5.10
2017-12-25T06:43:55.646Z,5.17
2017-12-25T06:46:23.094Z,2.63
2017-12-25T06:48:50.569Z,3.77
2017-12-25T06:51:18.000Z,3.20
2017-12-25T06:53:45.437Z,5.10
2017-12-25T06:56:12.875Z,3.17
2017-12-25T06:58:40.302Z,2.67
2017-12-25T07:01:07.747Z,5.10
2017-12-25T07:03:35.207Z,6.30
2017-12-25T07:06:02.656Z,5.60
2017-12-25T07:08:30.095Z,5.93
2017-12-25T07:10:57.531Z,5.90
2017-12-25T07:13:25.738Z,4.57
2017-12-25T07:15:54.039Z,4.40
2017-12-25T07:18:21.471Z,5.37
2017-12-25T07:20:48.907Z,3.63
2017-12-25T07:23:17.116Z,6.70
2017-12-25T07:25:44.547Z,5.47
2017-12-25T07:28:11.991Z,4.30
2017-12-25T07:30:40.191Z,4.40
2017-12-25T07:33:07.638Z,3.97
2017-12-25T07:35:36.667Z,5.03
2017-12-25T07:38:04.110Z,4.40
2017-12-25T07:40:31.543Z,3.97
2017-12-25T07:42:58.987Z,4.00
2017-12-25T07:45:27.188Z,4.43
2017-12-25T07:47:54.626Z,2.10
2017-12-25T07:50:22.410Z,5.50
2017-12-25T07:52:49.839Z,5.23
2017-12-25T07:55:18.035Z,4.27
2017-12-25T07:57:45.484Z,4.60
2017-12-25T08:00:12.916Z,4.73
2017-12-25T08:02:41.115Z,3.33
2017-12-25T08:05:08.560Z,4.20
2017-12-25T08:07:36.766Z,4.67
2017-12-25T08:10:04.210Z,4.90
2017-12-25T08:12:31.642Z,4.57
2017-12-25T08:14:59.839Z,5.33
2017-12-25T08:17:27.303Z,5.40
2017-12-25T08:19:54.719Z,5.40
2017-12-25T08:22:22.918Z,4.93
2017-12-25T08:24:50.351Z,4.53
2017-12-25T08:27:18.567Z,4.83
2017-12-25T08:29:46.016Z,5.07
2017-12-25T08:32:13.455Z,4.87
2017-12-25T08:34:40.880Z,5.33
2017-12-25T08:37:08.311Z,5.37
2017-12-25T08:39:35.746Z,6.47
2017-12-25T08:42:03.190Z,5.83
2017-12-25T08:44:30.617Z,3.43
2017-12-25T08:46:58.818Z,4.63
2017-12-25T08:49:26.243Z,3.43
2017-12-25T08:51:54.456Z,3.30
2017-12-25T08:54:21.887Z,2.53
2017-12-25T08:56:50.104Z,5.17
2017-12-25T08:59:17.535Z,5.03
2017-12-25T09:01:45.011Z,4.53
2017-12-25T09:04:12.419Z,3.20
2017-12-25T09:06:39.849Z,3.57
2017-12-25T09:09:07.291Z,2.97
2017-12-25T09:11:34.726Z,4.47
2017-12-25T09:14:02.163Z,4.80
2017-12-25T09:16:29.591Z,2.97
2017-12-25T09:18:57.035Z,3.60
2017-12-25T09:21:24.479Z,4.27
2017-12-25T09:23:51.923Z,4.10
2017-12-25T09:26:19.355Z,3.60
2017-12-25T09:28:46.803Z,4.30
2017-12-25T09:31:14.991Z,3.40
2017-12-25T09:33:42.435Z,4.13
2017-12-25T09:36:09.899Z,4.40
2017-12-25T09:38:37.331Z,2.73
2017-12-25T09:41:05.523Z,5.30
2017-12-25T09:43:32.971Z,3.60
2017-12-25T09:46:01.168Z,3.83
2017-12-25T09:48:28.607Z,4.53
2017-12-25T09:50:56.039Z,4.37
2017-12-25T09:53:24.244Z,4.07
2017-12-25T09:55:51.679Z,3.87
2017-12-25T09:58:19.878Z,3.47
2017-12-25T10:00:47.315Z,3.20
2017-12-25T10:03:15.519Z,2.93
2017-12-25T10:05:42.950Z,2.70
2017-12-25T10:08:10.392Z,3.23
2017-12-25T10:10:38.595Z,4.00
2017-12-25T10:13:06.031Z,4.63
2017-12-25T10:15:34.232Z,2.83
2017-12-25T10:18:01.675Z,1.33
2017-12-25T10:20:29.109Z,3.10
2017-12-25T10:22:57.320Z,2.60
2017-12-25T10:25:24.765Z,2.20
2017-12-25T10:27:52.210Z,3.53
2017-12-25T10:30:20.424Z,3.17
2017-12-25T10:32:47.894Z,2.63
2017-12-25T10:35:15.348Z,2.40
2017-12-25T10:37:42.793Z,1.90
2017-12-25T10:40:10.245Z,2.70
2017-12-25T10:42:37.688Z,2.27
2017-12-25T10:45:05.116Z,2.33
2017-12-25T10:47:33.323Z,2.37
2017-12-25T10:50:00.776Z,3.00
2017-12-25T10:52:28.221Z,2.83
2017-12-25T10:54:55.650Z,2.00
2017-12-25T10:57:23.866Z,3.57
2017-12-25T10:59:51.299Z,3.00
2017-12-25T11:02:18.737Z,3.37
2017-12-25T11:04:46.934Z,3.60
2017-12-25T11:07:14.391Z,2.83
2017-12-25T11:09:41.840Z,3.67
2017-12-25T11:12:10.046Z,4.37
2017-12-25T11:14:37.505Z,3.60
2017-12-25T11:17:04.960Z,3.90
2017-12-25T11:19:32.400Z,3.03
2017-12-25T11:21:59.831Z,2.97
2017-12-25T11:24:28.038Z,2.73
2017-12-25T11:26:55.477Z,3.70
2017-12-25T11:29:23.724Z,3.80
2017-12-25T11:31:51.170Z,3.40
2017-12-25T11:34:18.615Z,4.10
2017-12-25T11:36:46.042Z,4.50
2017-12-25T11:39:13.502Z,4.10
2017-12-25T11:41:40.932Z,3.97
2017-12-25T11:44:08.411Z,3.03
2017-12-25T11:46:35.827Z,3.97
2017-12-25T11:49:04.103Z,2.87
2017-12-25T11:51:32.371Z,1.83
2017-12-25T11:53:59.796Z,2.80
2017-12-25T11:56:27.227Z,3.97
2017-12-25T11:58:54.664Z,3.50
2017-12-25T12:01:22.107Z,2.80
2017-12-25T12:03:50.314Z,3.50
2017-12-25T12:06:17.747Z,3.27
2017-12-25T12:08:45.967Z,2.57
2017-12-25T12:11:13.403Z,2.07
2017-12-25T12:13:40.842Z,3.13
2017-12-25T12:16:08.279Z,3.20
2017-12-25T12:18:36.484Z,3.33
2017-12-25T12:21:03.920Z,3.30
2017-12-25T12:23:32.127Z,2.83
2017-12-25T12:25:59.571Z,3.83
2017-12-25T12:28:27.007Z,2.70
2017-12-25T12:30:54.447Z,3.43
2017-12-25T12:33:22.310Z,3.20
2017-12-25T12:35:49.727Z,3.53
2017-12-25T12:38:17.174Z,2.27
2017-12-25T12:40:44.622Z,4.27
2017-12-25T12:43:12.069Z,3.53
2017-12-25T12:45:39.509Z,4.50
2017-12-25T12:48:07.710Z,3.97
2017-12-25T12:50:35.142Z,2.87
2017-12-25T12:53:02.599Z,2.80
2017-12-25T12:55:30.054Z,3.17
2017-12-25T12:57:58.264Z,2.70
2017-12-25T13:00:25.724Z,3.20
2017-12-25T13:02:53.138Z,3.00
2017-12-25T13:05:20.575Z,3.27
2017-12-25T13:07:48.040Z,3.73
2017-12-25T13:10:16.252Z,3.37
2017-12-25T13:12:43.713Z,3.67
2017-12-25T13:15:11.181Z,2.30
2017-12-25T13:17:38.619Z,3.80
2017-12-25T13:20:06.063Z,3.73
2017-12-25T13:22:33.516Z,3.73
2017-12-25T13:25:01.715Z,3.30
2017-12-25T13:27:29.148Z,3.73
2017-12-25T13:29:56.597Z,3.03
2017-12-25T13:32:24.786Z,4.57
2017-12-25T13:34:52.243Z,2.90
2017-12-25T13:37:19.666Z,1.90
2017-12-25T13:39:47.109Z,3.27
2017-12-25T13:42:14.547Z,2.43
2017-12-25T13:44:41.987Z,3.23
2017-12-25T13:47:09.439Z,3.50
2017-12-25T13:49:36.906Z,1.87
2017-12-25T13:52:04.339Z,2.17
2017-12-25T13:54:31.782Z,3.00
2017-12-25T13:56:59.222Z,2.80
2017-12-25T13:59:27.452Z,2.80
2017-12-25T14:01:54.914Z,2.63
2017-12-25T14:04:22.395Z,2.70
2017-12-25T14:06:49.831Z,3.30
2017-12-25T14:09:17.274Z,3.40
2017-12-25T14:11:44.757Z,3.20
2017-12-25T14:14:12.203Z,3.13
2017-12-25T14:16:39.642Z,3.70
2017-12-25T14:19:07.079Z,2.53
2017-12-25T14:21:35.290Z,3.40
2017-12-25T14:24:02.736Z,2.60
2017-12-25T14:26:30.168Z,2.97
2017-12-25T14:28:57.647Z,3.57
2017-12-25T14:31:25.078Z,2.70
2017-12-25T14:33:52.575Z,3.27
2017-12-25T14:36:20.008Z,2.53
2017-12-25T14:38:47.492Z,3.43
2017-12-25T14:41:14.958Z,3.20
2017-12-25T14:43:42.402Z,3.60
2017-12-25T14:46:09.901Z,1.73
2017-12-25T14:48:37.323Z,3.20
2017-12-25T14:51:04.781Z,3.53
2017-12-25T14:53:33.008Z,4.17
2017-12-25T14:56:00.447Z,3.83
2017-12-25T14:58:28.688Z,3.40
2017-12-25T15:00:56.130Z,3.20
2017-12-25T15:03:24.323Z,3.30
2017-12-25T15:05:51.746Z,3.17
2017-12-25T15:08:19.203Z,3.60
2017-12-25T15:10:46.639Z,3.10
2017-12-25T15:13:14.083Z,3.83
2017-12-25T15:15:42.279Z,3.27
2017-12-25T15:18:09.721Z,4.63
2017-12-25T15:20:37.154Z,2.90
2017-12-25T15:23:05.376Z,2.80
2017-12-25T15:25:32.832Z,2.60
2017-12-25T15:28:00.381Z,2.63
2017-12-25T15:30:27.839Z,2.60
2017-12-25T15:32:55.279Z,2.50
2017-12-25T15:35:22.724Z,2.50
2017-12-25T15:37:50.926Z,2.73
2017-12-25T15:40:18.358Z,2.90
2017-12-25T15:42:45.801Z,3.60
2017-12-25T15:45:13.231Z,3.10
2017-12-25T15:47:40.700Z,2.33
2017-12-25T15:50:08.143Z,3.30
2017-12-25T15:52:35.588Z,2.47
2017-12-25T15:55:03.069Z,2.20
2017-12-25T15:57:30.500Z,2.30
2017-12-25T15:59:57.944Z,1.77
2017-12-25T16:02:25.382Z,3.07
2017-12-25T16:04:52.817Z,2.33
2017-12-25T16:07:21.015Z,1.10
2017-12-25T16:09:48.459Z,1.60
2017-12-25T16:12:15.887Z,1.27
2017-12-25T16:14:43.342Z,2.27
2017-12-25T16:17:10.828Z,2.07
2017-12-25T16:19:38.227Z,2.03
2017-12-25T16:22:05.666Z,2.53
2017-12-25T16:24:33.153Z,1.50
2017-12-25T16:27:00.581Z,1.50
2017-12-25T16:29:28.030Z,1.67
2017-12-25T16:31:55.526Z,1.57
2017-12-25T16:34:22.966Z,1.90
2017-12-25T16:36:50.398Z,2.13
2017-12-25T16:39:17.867Z,1.60
2017-12-25T16:41:45.299Z,1.13
2017-12-25T16:44:12.744Z,1.37
2017-12-25T16:46:40.952Z,1.70
2017-12-25T16:49:08.387Z,1.63
2017-12-25T16:51:35.830Z,1.60
2017-12-25T16:54:03.267Z,1.80
2017-12-25T16:56:30.923Z,2.30
2017-12-25T16:58:59.227Z,2.37
2017-12-25T17:01:26.675Z,2.47
2017-12-25T17:03:54.878Z,1.50
2017-12-25T17:06:22.355Z,2.63
2017-12-25T17:08:49.806Z,2.30
2017-12-25T17:11:17.840Z,1.60
2017-12-25T17:16:48.816Z,2.57
2017-12-25T17:19:17.030Z,2.93
2017-12-25T17:21:45.374Z,3.53
2017-12-25T17:24:12.813Z,1.90
2017-12-25T17:26:41.032Z,2.53
2017-12-25T17:29:08.462Z,3.60
2017-12-25T17:31:35.890Z,3.00
2017-12-25T17:34:03.335Z,2.37
2017-12-25T17:36:32.266Z,2.77
2017-12-25T17:39:00.017Z,3.77
2017-12-25T17:41:27.452Z,3.13
2017-12-25T17:43:54.887Z,2.70
2017-12-25T17:46:22.346Z,2.90
2017-12-25T17:48:49.777Z,3.70
2017-12-25T17:51:17.215Z,3.37
2017-12-25T17:53:44.652Z,3.50
2017-12-25T17:56:12.883Z,2.30
2017-12-25T17:58:40.327Z,2.03
2017-12-25T18:01:07.771Z,1.63
2017-12-25T18:03:35.195Z,2.80
2017-12-25T18:06:03.404Z,1.87
2017-12-25T18:08:30.839Z,2.03
2017-12-25T18:10:58.301Z,2.33
2017-12-25T18:13:25.743Z,2.53
2017-12-25T18:15:53.468Z,2.03
2017-12-25T18:18:20.917Z,1.20
2017-12-25T18:20:48.423Z,0.77
2017-12-25T18:23:16.641Z,1.77
2017-12-25T18:25:44.086Z,1.30
2017-12-25T18:28:11.522Z,2.20
2017-12-25T18:30:38.971Z,2.10
2017-12-25T18:33:07.174Z,2.53
2017-12-25T18:35:34.646Z,1.93
2017-12-25T18:38:02.085Z,1.53
2017-12-25T18:40:29.531Z,1.83
2017-12-25T18:42:56.958Z,3.30
2017-12-25T18:45:25.162Z,2.43
2017-12-25T18:47:52.591Z,1.93
2017-12-25T18:50:20.818Z,1.73
2017-12-25T18:52:48.252Z,1.07
2017-12-25T18:55:15.688Z,1.30
2017-12-25T18:57:43.968Z,1.47
2017-12-25T19:00:12.159Z,1.33
2017-12-25T19:02:39.610Z,1.73
2017-12-25T19:05:07.085Z,1.37
2017-12-25T19:07:34.594Z,1.60
2017-12-25T19:10:01.998Z,2.10
2017-12-25T19:12:29.462Z,1.63
2017-12-25T19:14:56.898Z,1.40
2017-12-25T19:17:24.337Z,1.47
2017-12-25T19:19:52.561Z,1.30
2017-12-25T19:22:20.051Z,1.67
2017-12-25T19:24:47.503Z,1.80
2017-12-25T19:27:14.930Z,1.77
2017-12-25T19:29:42.394Z,2.17
2017-12-25T19:32:09.834Z,1.30
2017-12-25T19:34:37.294Z,2.93
2017-12-25T19:37:04.743Z,1.40
2017-12-25T19:39:32.206Z,2.07
2017-12-25T19:41:59.671Z,1.93
2017-12-25T19:44:27.103Z,2.47
2017-12-25T19:46:54.545Z,2.67
2017-12-25T19:49:22.737Z,1.20
2017-12-25T19:51:50.192Z,2.23
2017-12-25T19:54:17.626Z,1.50
2017-12-25T19:56:45.835Z,1.60
2017-12-25T19:59:13.266Z,2.03
2017-12-25T20:01:41.502Z,1.30
2017-12-25T20:04:08.923Z,1.93
2017-12-25T20:06:36.383Z,2.50
2017-12-25T20:09:03.864Z,1.50
2017-12-25T20:11:31.311Z,1.23
2017-12-25T20:13:58.757Z,1.90
2017-12-25T20:16:26.227Z,2.80
2017-12-25T20:18:53.674Z,1.77
2017-12-25T20:21:21.113Z,1.90
2017-12-25T20:23:48.546Z,2.00
2017-12-25T20:26:16.771Z,1.73
2017-12-25T20:28:44.207Z,3.07
2017-12-25T20:31:11.667Z,2.27
2017-12-25T20:33:39.116Z,1.20
2017-12-25T20:36:06.559Z,0.97
2017-12-25T20:38:33.982Z,1.57
2017-12-25T20:41:01.440Z,1.27
2017-12-25T20:43:28.915Z,1.40
2017-12-25T20:45:56.343Z,1.63
2017-12-25T20:48:23.803Z,2.10
2017-12-25T20:50:51.278Z,2.30
2017-12-25T20:53:18.727Z,2.60
2017-12-25T20:55:46.171Z,1.57
2017-12-25T20:58:13.616Z,1.80
2017-12-25T21:00:41.103Z,1.90
2017-12-25T21:03:09.294Z,1.40
2017-12-25T21:05:37.556Z,10.23
2017-12-25T21:08:04.995Z,1.40
2017-12-25T21:10:32.455Z,1.40
2017-12-25T21:12:59.918Z,1.07
2017-12-25T21:15:27.389Z,1.03
2017-12-25T21:17:55.586Z,1.03
2017-12-25T21:20:23.806Z,1.30
2017-12-25T21:22:51.243Z,0.83
2017-12-25T21:25:18.725Z,1.90
2017-12-25T21:27:46.173Z,2.30
2017-12-25T21:30:13.634Z,1.20
2017-12-25T21:32:41.060Z,1.30
2017-12-25T21:35:08.543Z,1.10
2017-12-25T21:37:35.986Z,1.67
2017-12-25T21:40:03.423Z,0.73
2017-12-25T21:42:30.858Z,1.27
2017-12-25T21:44:59.071Z,1.20
2017-12-25T21:47:26.516Z,1.20
2017-12-25T21:49:53.943Z,1.93
2017-12-25T21:52:22.170Z,1.93
2017-12-25T21:54:49.624Z,1.50
2017-12-25T21:57:17.064Z,1.00
2017-12-25T21:59:44.499Z,1.30
2017-12-25T22:02:11.936Z,1.20
2017-12-25T22:04:39.374Z,0.80
2017-12-25T22:07:06.846Z,1.60
2017-12-25T22:09:35.042Z,1.40
2017-12-25T22:12:02.566Z,1.90
2017-12-25T22:14:30.011Z,1.53
2017-12-25T22:16:57.458Z,1.47
2017-12-25T22:19:24.891Z,1.20
2017-12-25T22:21:52.334Z,1.50
2017-12-25T22:24:19.778Z,2.37
2017-12-25T22:26:48.002Z,2.80
2017-12-25T22:29:15.430Z,3.03
2017-12-25T22:31:43.059Z,3.10
2017-12-25T22:34:11.256Z,2.30
2017-12-25T22:36:38.699Z,1.80
2017-12-25T22:39:06.926Z,2.50
2017-12-25T22:41:34.387Z,2.07
2017-12-25T22:44:01.846Z,3.27
2017-12-25T22:46:29.365Z,2.70
2017-12-25T22:48:56.795Z,1.83
2017-12-25T22:51:24.227Z,2.50
2017-12-25T22:53:51.682Z,3.10
2017-12-25T22:56:19.146Z,1.10
2017-12-25T22:58:46.582Z,2.10
2017-12-25T23:01:14.026Z,2.37
2017-12-25T23:03:41.460Z,2.37
2017-12-25T23:06:08.903Z,2.07
2017-12-25T23:08:37.125Z,1.93
2017-12-25T23:11:04.579Z,1.63
2017-12-25T23:13:32.027Z,1.33
2017-12-25T23:15:59.507Z,2.40
2017-12-25T23:18:26.942Z,2.23
2017-12-25T23:20:54.402Z,2.80
2017-12-25T23:23:21.835Z,1.63
2017-12-25T23:25:49.279Z,1.00
2017-12-25T23:28:17.474Z,1.80
2017-12-25T23:30:44.930Z,2.50
2017-12-25T23:33:12.363Z,1.73
2017-12-25T23:35:40.568Z,2.33
2017-12-25T23:38:07.994Z,1.63
2017-12-25T23:40:36.207Z,0.97
2017-12-25T23:43:03.649Z,1.90
2017-12-25T23:45:31.079Z,3.20
2017-12-25T23:47:59.287Z,1.90
2017-12-25T23:50:26.719Z,2.80
2017-12-25T23:52:54.934Z,2.57
2017-12-25T23:55:22.350Z,3.73
2017-12-25T23:57:50.563Z,3.33
